Time;durP1;ratioP1;P1;durP2;ratioP2;P2;SDS_P1;SDS_P2;PMS_P1;PMS_P2;Temp;Humidity;BMP_temperature;BMP_pressure;BME280_temperature;BME280_humidity;BME280_pressure;Samples;Min_cycle;Max_cycle;Signal;HPM_P1;HPM_P2
2023/03/26 00:01:04;;;;;;;1999.90;999.90;;;7.80;99.90;;;;;;5068208;28;20048;-71
2023/03/26 00:03:32;;;;;;;1999.90;999.90;;;7.80;99.90;;;;;;5055230;28;20404;-71
2023/03/26 00:06:09;;;;;;;1999.90;999.90;;;7.80;99.90;;;;;;5062189;28;20075;-71
2023/03/26 00:08:37;;;;;;;1999.90;999.90;;;7.70;99.90;;;;;;5039903;28;20094;-71
2023/03/26 00:11:05;;;;;;;1999.90;999.90;;;7.70;99.90;;;;;;5042205;28;20385;-71
2023/03/26 00:13:32;;;;;;;1999.90;999.90;;;7.70;99.90;;;;;;5055579;28;20083;-71
2023/03/26 00:15:57;;;;;;;1999.90;999.90;;;7.70;99.90;;;;;;5056564;28;20037;-71
2023/03/26 00:18:30;;;;;;;1999.90;999.90;;;7.70;99.90;;;;;;5055471;28;20828;-71
2023/03/26 00:21:01;;;;;;;1999.90;999.90;;;7.70;99.90;;;;;;5046302;28;20561;-71
2023/03/26 00:23:28;;;;;;;1999.90;999.90;;;7.70;99.90;;;;;;5039433;28;20097;-71
2023/03/26 00:25:55;;;;;;;1999.90;999.90;;;7.60;99.90;;;;;;5070383;28;20037;-71
2023/03/26 00:28:21;;;;;;;1999.90;999.90;;;7.70;99.90;;;;;;5057186;28;20040;-71
2023/03/26 00:30:49;;;;;;;1999.90;999.90;;;7.70;99.90;;;;;;5055108;28;20044;-72
2023/03/26 00:33:18;;;;;;;1999.90;999.90;;;7.70;99.90;;;;;;5074234;28;20431;-71
2023/03/26 00:35:45;;;;;;;1999.90;999.90;;;7.70;99.90;;;;;;5042709;28;20038;-71
2023/03/26 00:38:15;;;;;;;1999.90;999.90;;;7.60;99.90;;;;;;5058427;28;20438;-72
2023/03/26 00:40:42;;;;;;;1999.90;999.90;;;7.60;99.90;;;;;;5054642;28;20124;-71
2023/03/26 00:43:17;;;;;;;1999.90;999.90;;;7.60;99.90;;;;;;5062491;28;20536;-71
2023/03/26 00:45:50;;;;;;;1999.90;999.90;;;7.60;99.90;;;;;;5064733;28;20531;-71
2023/03/26 00:48:17;;;;;;;1999.90;999.90;;;7.50;99.90;;;;;;5051166;28;20044;-71
2023/03/26 00:50:45;;;;;;;1999.90;999.90;;;7.50;99.90;;;;;;5067003;28;20385;-71
2023/03/26 00:53:12;;;;;;;1999.90;999.90;;;7.50;99.90;;;;;;5065504;28;20039;-71
2023/03/26 00:55:39;;;;;;;1999.90;999.90;;;7.50;99.90;;;;;;5049722;28;20439;-71
2023/03/26 00:58:09;;;;;;;1999.90;999.90;;;7.50;99.90;;;;;;5062622;28;20131;-71
2023/03/26 01:00:38;;;;;;;1999.90;999.90;;;7.50;99.90;;;;;;5047429;28;20036;-71
2023/03/26 01:03:05;;;;;;;1999.90;999.90;;;7.40;99.90;;;;;;5048559;28;20042;-71
2023/03/26 01:05:33;;;;;;;1999.90;999.90;;;7.40;99.90;;;;;;5047587;28;20070;-71
2023/03/26 01:08:14;;;;;;;1999.90;999.90;;;7.50;99.90;;;;;;5049526;28;20411;-71
2023/03/26 01:10:41;;;;;;;1999.90;999.90;;;7.50;99.90;;;;;;5066422;28;20036;-71
2023/03/26 01:13:07;;;;;;;1999.90;999.90;;;7.40;99.90;;;;;;5065006;28;20400;-72
2023/03/26 01:15:36;;;;;;;1999.90;999.90;;;7.50;99.90;;;;;;5066918;28;20039;-71
2023/03/26 01:18:04;;;;;;;1999.90;999.90;;;7.40;99.90;;;;;;5067244;28;20122;-71
2023/03/26 01:20:33;;;;;;;1999.90;999.90;;;7.40;99.90;;;;;;5065166;28;20505;-71
2023/03/26 01:23:04;;;;;;;1999.90;999.90;;;7.40;99.90;;;;;;5069755;28;20044;-71
2023/03/26 01:25:36;;;;;;;1999.90;999.90;;;7.30;99.90;;;;;;5065154;28;20544;-71
2023/03/26 01:28:07;;;;;;;1999.90;999.90;;;7.40;99.90;;;;;;5048238;28;20035;-71
2023/03/26 01:31:00;;;;;;;1999.90;999.90;;;7.40;99.90;;;;;;5067368;28;20056;-71
2023/03/26 01:33:32;;;;;;;1999.90;999.90;;;7.30;99.90;;;;;;5063959;28;20066;-71
2023/03/26 01:36:28;;;;;;;1999.90;999.90;;;7.30;99.90;;;;;;5066064;28;20102;-71
2023/03/26 01:39:24;;;;;;;1999.90;999.90;;;7.30;99.90;;;;;;5068991;28;20041;-71
2023/03/26 01:42:07;;;;;;;1999.90;999.90;;;7.30;99.90;;;;;;5064862;28;20501;-71
2023/03/26 01:44:53;;;;;;;1999.90;999.90;;;7.30;99.90;;;;;;5065428;28;20044;-71
2023/03/26 01:47:20;;;;;;;1999.90;999.90;;;7.20;99.90;;;;;;5064735;28;20086;-71
2023/03/26 01:49:46;;;;;;;1999.90;999.90;;;7.10;99.90;;;;;;5066565;28;20044;-71
2023/03/26 01:52:23;;;;;;;1999.90;999.90;;;7.10;99.90;;;;;;5051215;28;20038;-71
2023/03/26 01:54:49;;;;;;;1999.90;999.90;;;6.90;99.90;;;;;;5064903;28;20404;-71
2023/03/26 01:57:27;;;;;;;1999.90;999.90;;;6.80;99.90;;;;;;5065365;28;20044;-71
2023/03/26 02:00:10;;;;;;;1999.90;999.90;;;6.70;99.90;;;;;;5064695;28;20393;-71
2023/03/26 02:02:56;;;;;;;1999.90;999.90;;;6.70;99.90;;;;;;5066122;28;20129;-71
2023/03/26 02:05:40;;;;;;;1999.90;999.90;;;6.60;99.90;;;;;;5064865;28;20123;-71
2023/03/26 02:08:21;;;;;;;1999.90;999.90;;;6.50;99.90;;;;;;5061707;28;20116;-71
2023/03/26 02:10:56;;;;;;;1999.90;999.90;;;6.50;99.90;;;;;;5064447;28;20633;-71
2023/03/26 02:13:22;;;;;;;1999.90;999.90;;;6.40;99.90;;;;;;5065472;28;20583;-71
2023/03/26 02:16:02;;;;;;;1999.90;999.90;;;6.40;99.90;;;;;;5049168;28;20029;-71
2023/03/26 02:18:35;;;;;;;1999.90;999.90;;;6.30;99.90;;;;;;5067981;28;20033;-71
2023/03/26 02:21:11;;;;;;;1999.90;999.90;;;6.20;99.90;;;;;;5064493;28;20453;-71
2023/03/26 02:23:41;;;;;;;1999.90;999.90;;;6.30;99.90;;;;;;5063610;28;20048;-71
2023/03/26 02:26:10;;;;;;;1999.90;999.90;;;6.20;99.90;;;;;;5066099;28;20059;-71
2023/03/26 02:28:37;;;;;;;1999.90;999.90;;;6.20;99.90;;;;;;5051479;28;20545;-72
2023/03/26 02:31:03;;;;;;;1999.90;999.90;;;6.20;99.90;;;;;;5063748;28;20032;-71
2023/03/26 02:33:30;;;;;;;1999.90;999.90;;;6.30;99.90;;;;;;5063979;28;20044;-71
2023/03/26 02:36:00;;;;;;;1999.90;999.90;;;6.30;99.90;;;;;;5063502;28;20036;-70
2023/03/26 02:38:27;;;;;;;1999.90;999.90;;;6.40;99.90;;;;;;5065526;28;20055;-71
2023/03/26 02:40:54;;;;;;;1999.90;999.90;;;6.40;99.90;;;;;;5065771;28;20397;-71
2023/03/26 02:43:21;;;;;;;1999.90;999.90;;;6.50;99.90;;;;;;5062220;28;20425;-71
2023/03/26 02:45:47;;;;;;;1999.90;999.90;;;6.50;99.90;;;;;;5064620;28;20070;-71
2023/03/26 02:48:14;;;;;;;1999.90;999.90;;;6.50;99.90;;;;;;5049133;28;20048;-70
2023/03/26 02:50:40;;;;;;;1999.90;999.90;;;6.50;99.90;;;;;;5065660;28;20044;-71
2023/03/26 02:53:06;;;;;;;1999.90;999.90;;;6.60;99.90;;;;;;5047627;28;20055;-71
2023/03/26 02:55:31;;;;;;;1999.90;999.90;;;6.60;99.90;;;;;;5067690;28;20492;-71
2023/03/26 02:57:57;;;;;;;1999.90;999.90;;;6.60;99.90;;;;;;5077621;28;20044;-71
2023/03/26 03:00:24;;;;;;;1999.90;999.90;;;6.60;99.90;;;;;;5047658;28;20127;-71
2023/03/26 03:02:51;;;;;;;1999.90;999.90;;;6.60;99.90;;;;;;5065128;28;20076;-71
2023/03/26 03:05:17;;;;;;;1999.90;999.90;;;6.60;99.90;;;;;;5047472;28;20047;-71
2023/03/26 03:07:45;;;;;;;1999.90;999.90;;;6.60;99.90;;;;;;5051270;28;20113;-71
2023/03/26 03:10:13;;;;;;;1999.90;999.90;;;6.70;99.90;;;;;;5048394;28;20062;-71
2023/03/26 03:12:41;;;;;;;1999.90;999.90;;;6.70;99.90;;;;;;5049935;28;20036;-71
2023/03/26 03:15:08;;;;;;;1999.90;999.90;;;6.70;99.90;;;;;;5080865;28;20032;-71
2023/03/26 03:17:34;;;;;;;1999.90;999.90;;;6.70;99.90;;;;;;5063507;28;20491;-71
2023/03/26 03:20:00;;;;;;;1999.90;999.90;;;6.70;99.90;;;;;;5067860;28;20070;-71
2023/03/26 03:22:25;;;;;;;1999.90;999.90;;;6.70;99.90;;;;;;5060001;28;20052;-71
2023/03/26 03:24:51;;;;;;;1999.90;999.90;;;6.70;99.90;;;;;;5064700;28;20074;-71
2023/03/26 03:27:19;;;;;;;1999.90;999.90;;;6.70;99.90;;;;;;5044253;28;20510;-71
2023/03/26 03:29:45;;;;;;;1999.90;999.90;;;6.70;99.90;;;;;;5065391;28;20054;-71
2023/03/26 03:32:11;;;;;;;1999.90;999.90;;;6.70;99.90;;;;;;5049979;28;20040;-71
2023/03/26 03:34:37;;;;;;;1999.90;999.90;;;6.70;99.90;;;;;;5047384;28;20731;-71
2023/03/26 03:37:03;;;;;;;1999.90;999.90;;;6.70;99.90;;;;;;5064849;28;20033;-71
2023/03/26 03:39:29;;;;;;;1999.90;999.90;;;6.60;99.90;;;;;;5047713;28;20043;-71
2023/03/26 03:41:55;;;;;;;1999.90;999.90;;;6.60;99.90;;;;;;5067284;28;20042;-71
2023/03/26 03:44:20;;;;;;;1999.90;999.90;;;6.60;99.90;;;;;;5065496;28;20032;-71
2023/03/26 03:46:48;;;;;;;1999.90;999.90;;;6.50;99.90;;;;;;5063632;28;20052;-71
2023/03/26 03:49:13;;;;;;;1999.90;999.90;;;6.40;99.90;;;;;;5064092;28;20060;-72
2023/03/26 03:51:39;;;;;;;1999.90;999.90;;;6.30;99.90;;;;;;5048220;28;20052;-71
2023/03/26 03:54:05;;;;;;;1999.90;999.90;;;6.20;99.90;;;;;;5064861;28;20094;-71
2023/03/26 03:56:31;;;;;;;1999.90;999.90;;;6.10;99.90;;;;;;5052366;28;20485;-71
2023/03/26 03:58:57;;;;;;;1999.90;999.90;;;5.90;99.90;;;;;;5048082;28;20044;-71
2023/03/26 04:01:23;;;;;;;1999.90;999.90;;;5.80;99.90;;;;;;5067072;28;20065;-71
2023/03/26 04:03:48;;;;;;;1999.90;999.90;;;5.70;99.90;;;;;;5063860;28;20047;-71
2023/03/26 04:06:17;;;;;;;1999.90;999.90;;;5.60;99.90;;;;;;5064468;28;20311;-71
2023/03/26 04:08:44;;;;;;;1999.90;999.90;;;5.50;99.90;;;;;;5046644;28;20037;-71
2023/03/26 04:11:11;;;;;;;1999.90;999.90;;;5.40;99.90;;;;;;5062468;28;20445;-71
2023/03/26 04:13:36;;;;;;;1999.90;999.90;;;5.30;99.90;;;;;;5063296;28;20093;-71
2023/03/26 04:16:02;;;;;;;1999.90;999.90;;;5.20;99.90;;;;;;5063205;28;20048;-71
2023/03/26 04:18:29;;;;;;;1999.90;999.90;;;5.20;99.90;;;;;;5049110;28;20086;-71
2023/03/26 04:20:54;;;;;;;1999.90;999.90;;;5.10;99.90;;;;;;5067420;28;20083;-71
2023/03/26 04:23:21;;;;;;;1999.90;999.90;;;5.00;99.90;;;;;;5068306;28;20079;-71
2023/03/26 04:25:52;;;;;;;1999.90;999.90;;;5.00;99.90;;;;;;5050939;28;20045;-71
2023/03/26 04:28:29;;;;;;;1999.90;999.90;;;5.00;99.90;;;;;;5068533;28;20048;-71
2023/03/26 04:30:59;;;;;;;1999.90;999.90;;;5.00;99.90;;;;;;5082530;28;20051;-71
2023/03/26 04:33:30;;;;;;;1999.90;999.90;;;5.00;99.90;;;;;;5053970;28;20051;-71
2023/03/26 04:36:00;;;;;;;1999.90;999.90;;;5.00;99.90;;;;;;5065361;28;20106;-71
2023/03/26 04:38:32;;;;;;;1999.90;999.90;;;5.00;99.90;;;;;;5067786;28;20044;-71
2023/03/26 04:41:01;;;;;;;1999.90;999.90;;;5.10;99.90;;;;;;5049203;28;20040;-71
2023/03/26 04:43:29;;;;;;;1999.90;999.90;;;5.10;99.90;;;;;;5069086;28;20039;-71
2023/03/26 04:45:55;;;;;;;1999.90;999.90;;;5.20;99.90;;;;;;5046318;28;20037;-71
2023/03/26 04:48:21;;;;;;;1999.90;999.90;;;5.20;99.90;;;;;;5068979;28;20086;-71
2023/03/26 04:50:46;;;;;;;1999.90;999.90;;;5.20;99.90;;;;;;5049935;28;20032;-71
2023/03/26 04:53:15;;;;;;;1999.90;999.90;;;5.10;99.90;;;;;;5070795;28;20063;-71
2023/03/26 04:55:49;;;;;;;1999.90;999.90;;;5.10;99.90;;;;;;5066225;28;20036;-71
2023/03/26 04:58:15;;;;;;;1999.90;999.90;;;5.00;99.90;;;;;;5067499;28;20094;-71
2023/03/26 05:00:40;;;;;;;1999.90;999.90;;;5.00;99.90;;;;;;5050253;28;20477;-71
2023/03/26 05:03:10;;;;;;;1999.90;999.90;;;4.90;99.90;;;;;;5050453;28;20041;-71
2023/03/26 05:05:36;;;;;;;1999.90;999.90;;;4.80;99.90;;;;;;5069730;28;20123;-71
2023/03/26 05:08:02;;;;;;;1999.90;999.90;;;4.80;99.90;;;;;;5066003;28;20448;-70
2023/03/26 05:10:28;;;;;;;1999.90;999.90;;;4.70;99.90;;;;;;5067757;28;20068;-71
2023/03/26 05:12:53;;;;;;;1999.90;999.90;;;4.60;99.90;;;;;;5064578;28;20542;-71
2023/03/26 05:15:19;;;;;;;1999.90;999.90;;;4.60;99.90;;;;;;5069604;28;20040;-70
2023/03/26 05:17:45;;;;;;;1999.90;999.90;;;4.50;99.90;;;;;;5047780;28;20119;-70
2023/03/26 05:20:16;;;;;;;1999.90;999.90;;;4.40;99.90;;;;;;5069505;28;20477;-70
2023/03/26 05:22:43;;;;;;;1999.90;999.90;;;4.30;99.90;;;;;;5063838;28;20079;-71
2023/03/26 05:25:08;;;;;;;1999.90;999.90;;;4.30;99.90;;;;;;5066655;28;20475;-70
2023/03/26 05:27:34;;;;;;;1999.90;999.90;;;4.30;99.90;;;;;;5066164;28;20058;-71
2023/03/26 05:30:01;;;;;;;1999.90;999.90;;;4.30;99.90;;;;;;5048832;28;20041;-71
2023/03/26 05:32:27;;;;;;;1999.90;999.90;;;4.40;99.90;;;;;;5047830;28;20076;-71
2023/03/26 05:34:52;;;;;;;1999.90;999.90;;;4.40;99.90;;;;;;5047971;28;20083;-71
2023/03/26 05:37:19;;;;;;;1999.90;999.90;;;4.40;99.90;;;;;;5047380;28;20484;-71
2023/03/26 05:39:45;;;;;;;1999.90;999.90;;;4.40;99.90;;;;;;5049615;28;20040;-71
2023/03/26 05:42:10;;;;;;;1999.90;999.90;;;4.50;99.90;;;;;;5049594;28;20424;-71
2023/03/26 05:44:36;;;;;;;1999.90;999.90;;;4.50;99.90;;;;;;5048527;28;20037;-70
2023/03/26 05:47:02;;;;;;;1999.90;999.90;;;4.60;99.90;;;;;;5050263;28;20137;-70
2023/03/26 05:49:28;;;;;;;1999.90;999.90;;;4.60;99.90;;;;;;5065282;28;20051;-71
2023/03/26 05:51:54;;;;;;;1999.90;999.90;;;4.70;99.90;;;;;;5066931;28;20500;-71
2023/03/26 05:54:19;;;;;;;1999.90;999.90;;;4.80;99.90;;;;;;5067491;28;20074;-71
2023/03/26 05:56:45;;;;;;;1999.90;999.90;;;4.80;99.90;;;;;;5068319;28;20032;-71
2023/03/26 05:59:12;;;;;;;1999.90;999.90;;;4.90;99.90;;;;;;5067511;28;20038;-71
2023/03/26 06:01:38;;;;;;;1999.90;999.90;;;5.00;99.90;;;;;;5069256;28;20044;-71
2023/03/26 06:04:04;;;;;;;1999.90;999.90;;;5.00;99.90;;;;;;5049987;28;20063;-71
2023/03/26 06:06:30;;;;;;;1999.90;999.90;;;5.00;99.90;;;;;;5047493;28;20090;-71
2023/03/26 06:08:55;;;;;;;1999.90;999.90;;;5.10;99.90;;;;;;5066641;28;20037;-71
2023/03/26 06:11:21;;;;;;;1999.90;999.90;;;5.20;99.90;;;;;;5048457;28;20564;-71
2023/03/26 06:13:47;;;;;;;1999.90;999.90;;;5.30;99.90;;;;;;5064374;28;20064;-71
2023/03/26 06:16:14;;;;;;;1999.90;999.90;;;5.30;99.90;;;;;;5067546;28;20068;-71
2023/03/26 06:18:40;;;;;;;1999.90;999.90;;;5.40;99.90;;;;;;5064993;28;20089;-71
2023/03/26 06:21:06;;;;;;;1999.90;999.90;;;5.50;99.90;;;;;;5064467;28;20504;-71
2023/03/26 06:23:32;;;;;;;1999.90;999.90;;;5.60;99.90;;;;;;5065642;28;20044;-71
2023/03/26 06:25:58;;;;;;;1999.90;999.90;;;5.60;99.90;;;;;;5064436;28;20032;-71
2023/03/26 06:28:24;;;;;;;1999.90;999.90;;;5.70;99.90;;;;;;5048004;28;20114;-71
2023/03/26 06:30:50;;;;;;;1999.90;999.90;;;5.80;99.90;;;;;;5062519;28;20097;-71
2023/03/26 06:33:16;;;;;;;1999.90;999.90;;;5.80;99.90;;;;;;5067486;28;20039;-71
2023/03/26 06:35:43;;;;;;;1999.90;999.90;;;5.90;99.90;;;;;;5048831;28;20037;-71
2023/03/26 06:38:08;;;;;;;1999.90;999.90;;;6.00;99.90;;;;;;5076978;28;20036;-71
2023/03/26 06:40:34;;;;;;;1999.90;999.90;;;6.00;99.90;;;;;;5063793;28;20098;-71
2023/03/26 06:43:00;;;;;;;1999.90;999.90;;;6.10;99.90;;;;;;5064707;28;20503;-71
2023/03/26 06:45:27;;;;;;;1999.90;999.90;;;6.20;99.90;;;;;;5063446;28;20451;-71
2023/03/26 06:47:53;;;;;;;1999.90;999.90;;;6.30;99.90;;;;;;5063204;28;20047;-71
2023/03/26 06:50:18;;;;;;;1999.90;999.90;;;6.40;99.90;;;;;;5062381;28;20255;-71
2023/03/26 06:52:44;;;;;;;1999.90;999.90;;;6.40;99.90;;;;;;5067322;28;20040;-71
2023/03/26 06:55:10;;;;;;;1999.90;999.90;;;6.50;99.90;;;;;;5069636;28;20503;-71
2023/03/26 06:57:36;;;;;;;1999.90;999.90;;;6.60;99.90;;;;;;5063254;28;20040;-71
2023/03/26 07:00:03;;;;;;;1999.90;999.90;;;6.60;99.90;;;;;;5046840;28;20502;-71
2023/03/26 07:02:28;;;;;;;1999.90;999.90;;;6.70;99.90;;;;;;5064683;28;20052;-71
2023/03/26 07:04:54;;;;;;;1999.90;999.90;;;6.70;99.90;;;;;;5063539;28;20508;-71
2023/03/26 07:07:22;;;;;;;1999.90;999.90;;;6.70;99.90;;;;;;5063737;28;20465;-71
2023/03/26 07:09:48;;;;;;;1999.90;999.90;;;6.80;99.90;;;;;;5062829;28;20401;-72
2023/03/26 07:12:14;;;;;;;1999.90;999.90;;;6.70;99.90;;;;;;5064810;28;20040;-71
2023/03/26 07:14:39;;;;;;;1999.90;999.90;;;6.80;99.90;;;;;;5048353;28;20044;-71
2023/03/26 07:17:05;;;;;;;1999.90;999.90;;;6.80;99.90;;;;;;5065409;28;20079;-71
2023/03/26 07:19:31;;;;;;;1999.90;999.90;;;6.90;99.90;;;;;;5061563;28;20054;-71
2023/03/26 07:21:57;;;;;;;1999.90;999.90;;;6.90;99.90;;;;;;5065217;28;20118;-71
2023/03/26 07:24:24;;;;;;;1999.90;999.90;;;7.00;99.90;;;;;;5047548;28;20098;-71
2023/03/26 07:26:56;;;;;;;1999.90;999.90;;;7.00;99.90;;;;;;5062979;28;20068;-72
2023/03/26 07:30:05;;;;;;;1999.90;999.90;;;7.10;99.90;;;;;;5046914;28;20443;-71
2023/03/26 07:32:46;;;;;;;1999.90;999.90;;;7.20;99.90;;;;;;5006283;28;20552;-71
2023/03/26 07:35:36;;;;;;;1999.90;999.90;;;7.30;99.90;;;;;;5022144;28;20563;-71
2023/03/26 07:38:05;;;;;;;1999.90;999.90;;;7.40;99.90;;;;;;5005188;28;20077;-72
2023/03/26 07:40:42;;;;;;;1999.90;999.90;;;7.40;99.90;;;;;;5004132;28;20053;-72
2023/03/26 07:43:29;;;;;;;1999.90;999.90;;;7.50;99.90;;;;;;5002532;28;20045;-71
2023/03/26 07:45:56;;;;;;;1999.90;999.90;;;7.60;99.90;;;;;;5004403;28;20532;-71
2023/03/26 07:48:28;;;;;;;1999.90;999.90;;;7.70;99.90;;;;;;5004607;28;20144;-71
2023/03/26 07:50:54;;;;;;;1999.90;999.90;;;7.70;99.90;;;;;;5006689;28;20049;-71
2023/03/26 07:53:21;;;;;;;1999.90;999.90;;;7.70;99.90;;;;;;5005102;28;20073;-71
2023/03/26 07:55:49;;;;;;;1999.90;999.90;;;7.80;99.90;;;;;;5006339;28;20289;-71
2023/03/26 07:58:23;;;;;;;1999.90;999.90;;;7.90;99.90;;;;;;4988478;28;20144;-71
2023/03/26 08:00:58;;;;;;;1999.90;999.90;;;7.90;99.90;;;;;;5002367;28;20069;-71
2023/03/26 08:03:37;;;;;;;1999.90;999.90;;;8.00;99.90;;;;;;5005001;28;20053;-71
2023/03/26 08:06:28;;;;;;;1999.90;999.90;;;8.10;99.90;;;;;;5004767;28;20103;-71
2023/03/26 08:09:14;;;;;;;1999.90;999.90;;;7.90;99.90;;;;;;5028799;28;20083;-71
2023/03/26 08:11:43;;;;;;;1999.90;999.90;;;7.70;99.90;;;;;;5059233;28;20052;-71
2023/03/26 08:14:23;;;;;;;1999.90;999.90;;;7.60;99.90;;;;;;5061942;28;20569;-71
2023/03/26 08:17:04;;;;;;;1999.90;999.90;;;7.70;99.90;;;;;;5061521;28;20068;-71
2023/03/26 08:19:50;;;;;;;1999.90;999.90;;;7.80;99.90;;;;;;5065255;28;20512;-71
2023/03/26 08:22:27;;;;;;;1999.90;999.90;;;7.80;99.90;;;;;;5062939;28;20056;-71
2023/03/26 08:25:08;;;;;;;1999.90;999.90;;;7.90;99.90;;;;;;5059566;28;20044;-71
2023/03/26 08:27:38;;;;;;;1999.90;999.90;;;8.10;99.90;;;;;;5059077;28;20044;-71
2023/03/26 08:30:14;;;;;;;1999.90;999.90;;;8.30;99.90;;;;;;5056950;28;20342;-71
2023/03/26 08:32:41;;;;;;;1999.90;999.90;;;8.50;99.90;;;;;;5057973;28;20064;-71
2023/03/26 08:35:10;;;;;;;1999.90;999.90;;;8.70;99.90;;;;;;5060526;28;20032;-71
2023/03/26 08:37:35;;;;;;;1999.90;999.90;;;9.10;99.90;;;;;;5044596;28;20215;-71
2023/03/26 08:40:02;;;;;;;1999.90;999.90;;;9.60;99.90;;;;;;5063039;28;20558;-71
2023/03/26 08:43:02;;;;;;;1999.90;999.90;;;9.70;99.90;;;;;;5066852;28;20043;-71
2023/03/26 08:45:37;;;;;;;1999.90;999.90;;;9.60;99.90;;;;;;5061353;28;20304;-71
2023/03/26 08:48:09;;;;;;;1999.90;999.90;;;9.50;99.90;;;;;;5046560;28;20078;-71
2023/03/26 08:51:04;;;;;;;1999.90;999.90;;;9.50;99.90;;;;;;5063805;28;20047;-71
2023/03/26 08:53:57;;;;;;;1999.90;999.90;;;9.40;99.90;;;;;;5061882;28;20044;-72
2023/03/26 08:56:38;;;;;;;1999.90;999.90;;;9.40;99.90;;;;;;5046174;28;20493;-71
2023/03/26 08:59:21;;;;;;;1999.90;999.90;;;9.50;99.90;;;;;;5060331;28;20052;-71
2023/03/26 09:02:04;;;;;;;1999.90;999.90;;;9.70;99.90;;;;;;5039972;28;20400;-71
2023/03/26 09:04:52;;;;;;;1999.90;999.90;;;9.80;99.90;;;;;;5054852;28;20119;-71
2023/03/26 09:07:33;;;;;;;1999.90;999.90;;;9.80;99.90;;;;;;5060178;28;20186;-71
2023/03/26 09:10:24;;;;;;;1999.90;999.90;;;9.70;99.90;;;;;;5063489;28;20401;-71
2023/03/26 09:13:17;;;;;;;1999.90;999.90;;;9.50;99.90;;;;;;5051202;28;20040;-71
2023/03/26 09:15:55;;;;;;;1999.90;999.90;;;9.50;99.90;;;;;;5065143;28;20041;-71
2023/03/26 09:18:42;;;;;;;1999.90;999.90;;;9.40;99.90;;;;;;5068455;28;20048;-71
2023/03/26 09:21:37;;;;;;;1999.90;999.90;;;9.50;99.90;;;;;;5068331;28;20048;-71
2023/03/26 09:24:26;;;;;;;1999.90;999.90;;;9.60;99.90;;;;;;5064729;28;20431;-71
2023/03/26 09:27:16;;;;;;;1999.90;999.90;;;9.50;99.90;;;;;;5064448;28;20052;-72
2023/03/26 09:29:48;;;;;;;1999.90;999.90;;;9.40;99.90;;;;;;5047466;28;20072;-71
2023/03/26 09:32:27;;;;;;;1999.90;999.90;;;9.30;99.90;;;;;;5060734;28;20055;-71
2023/03/26 09:35:31;;;;;;;1999.90;999.90;;;9.30;99.90;;;;;;5044103;28;20036;-71
2023/03/26 09:38:09;;;;;;;1999.90;999.90;;;9.40;99.90;;;;;;5060246;28;20041;-71
2023/03/26 09:40:42;;;;;;;1999.90;999.90;;;9.40;99.90;;;;;;5067114;28;20045;-71
2023/03/26 09:43:20;;;;;;;1999.90;999.90;;;9.40;99.90;;;;;;5064896;28;20540;-71
2023/03/26 09:46:25;;;;;;;1999.90;999.90;;;9.30;99.90;;;;;;5057192;28;20044;-71
2023/03/26 09:48:54;;;;;;;1999.90;999.90;;;9.30;99.90;;;;;;5058116;28;20045;-71
2023/03/26 09:51:39;;;;;;;1999.90;999.90;;;9.30;99.90;;;;;;5056920;28;20116;-72
2023/03/26 09:54:17;;;;;;;1999.90;999.90;;;9.20;99.90;;;;;;5058605;28;20036;-71
2023/03/26 09:57:01;;;;;;;1999.90;999.90;;;9.10;99.90;;;;;;5065562;28;20542;-71
2023/03/26 09:59:40;;;;;;;1999.90;999.90;;;9.10;99.90;;;;;;5061539;28;20055;-71
2023/03/26 10:02:08;;;;;;;1999.90;999.90;;;9.10;99.90;;;;;;5066181;28;20052;-72
2023/03/26 10:05:03;;;;;;;1999.90;999.90;;;9.20;99.90;;;;;;5048066;28;20086;-71
2023/03/26 10:07:38;;;;;;;1999.90;999.90;;;9.20;99.90;;;;;;5049937;28;20044;-71
2023/03/26 10:10:37;;;;;;;1999.90;999.90;;;9.30;99.90;;;;;;5066148;28;20044;-71
2023/03/26 10:13:26;;;;;;;1999.90;999.90;;;9.40;99.90;;;;;;5048737;28;20084;-71
2023/03/26 10:16:10;;;;;;;1999.90;999.90;;;9.30;99.90;;;;;;5048093;28;20557;-71
2023/03/26 10:18:58;;;;;;;1999.90;999.90;;;9.40;99.90;;;;;;5064608;28;20105;-71
2023/03/26 10:21:43;;;;;;;1999.90;999.90;;;9.50;99.90;;;;;;5065154;28;20512;-71
2023/03/26 10:24:27;;;;;;;1999.90;999.90;;;9.60;99.90;;;;;;5081306;28;20041;-71
2023/03/26 10:26:56;;;;;;;1999.90;999.90;;;9.50;99.90;;;;;;5061206;28;20040;-71
2023/03/26 10:29:36;;;;;;;1999.90;999.90;;;9.60;99.90;;;;;;5048429;28;20048;-71
2023/03/26 10:32:30;;;;;;;1999.90;999.90;;;9.70;99.90;;;;;;5060063;28;20385;-71
2023/03/26 10:35:34;;;;;;;1999.90;999.90;;;9.80;99.90;;;;;;5044806;28;20133;-71
2023/03/26 10:38:25;;;;;;;1999.90;999.90;;;9.90;99.90;;;;;;5047064;28;20158;-71
2023/03/26 10:41:05;;;;;;;1999.90;999.90;;;10.00;99.90;;;;;;5061040;28;20049;-71
2023/03/26 10:43:58;;;;;;;1999.90;999.90;;;10.00;99.90;;;;;;5062499;28;20048;-71
2023/03/26 10:46:47;;;;;;;1999.90;999.90;;;10.00;99.90;;;;;;5059350;28;20052;-71
2023/03/26 10:49:28;;;;;;;1999.90;999.90;;;10.10;99.90;;;;;;5061329;28;20059;-71
2023/03/26 10:52:08;;;;;;;1999.90;999.90;;;10.10;99.90;;;;;;5062312;28;20118;-71
2023/03/26 10:54:56;;;;;;;1999.90;999.90;;;10.10;99.90;;;;;;5064830;28;20454;-71
2023/03/26 10:57:33;;;;;;;1999.90;999.90;;;10.00;99.90;;;;;;5065293;28;20044;-72
2023/03/26 11:00:24;;;;;;;1999.90;999.90;;;9.80;99.90;;;;;;5064812;28;20112;-71
2023/03/26 11:03:26;;;;;;;1999.90;999.90;;;9.70;99.90;;;;;;5066320;28;20055;-71
2023/03/26 11:06:14;;;;;;;1999.90;999.90;;;9.60;99.90;;;;;;5060054;28;20048;-71
2023/03/26 11:09:11;;;;;;;1999.90;999.90;;;9.70;99.90;;;;;;5065941;28;20381;-71
2023/03/26 11:11:41;;;;;;;1999.90;999.90;;;9.70;99.90;;;;;;5043641;28;20545;-71
2023/03/26 11:14:24;;;;;;;1999.90;999.90;;;9.70;99.90;;;;;;5080383;28;20573;-71
2023/03/26 11:17:26;;;;;;;1999.90;999.90;;;9.70;99.90;;;;;;5049115;28;20041;-71
2023/03/26 11:20:04;;;;;;;1999.90;999.90;;;9.60;99.90;;;;;;5045223;28;20067;-71
2023/03/26 11:22:45;;;;;;;1999.90;999.90;;;9.70;99.90;;;;;;5068902;28;20048;-71
2023/03/26 11:25:25;;;;;;;1999.90;999.90;;;9.80;99.90;;;;;;5064112;28;20128;-71
2023/03/26 11:28:08;;;;;;;1999.90;999.90;;;9.80;99.90;;;;;;5060997;28;20039;-71
2023/03/26 11:31:17;;;;;;;1999.90;999.90;;;9.90;99.90;;;;;;5065492;28;20052;-71
2023/03/26 11:33:49;;;;;;;1999.90;999.90;;;9.90;99.90;;;;;;4966795;28;20050;-71
2023/03/26 11:36:24;;;;;;;1999.90;999.90;;;9.90;99.90;;;;;;4966452;28;20137;-71
2023/03/26 11:38:52;;;;;;;1999.90;999.90;;;9.90;99.90;;;;;;4966594;28;20092;-71
2023/03/26 11:41:22;;;;;;;1999.90;999.90;;;9.80;99.90;;;;;;4966650;28;20056;-71
2023/03/26 11:43:53;;;;;;;1999.90;999.90;;;9.80;99.90;;;;;;4965444;28;20132;-71
2023/03/26 11:46:22;;;;;;;1999.90;999.90;;;9.80;99.90;;;;;;4969213;28;20054;-71
2023/03/26 11:48:56;;;;;;;1999.90;999.90;;;9.70;99.90;;;;;;4969321;28;20088;-71
2023/03/26 11:51:36;;;;;;;1999.90;999.90;;;9.60;99.90;;;;;;4968952;28;20054;-71
2023/03/26 11:54:04;;;;;;;1999.90;999.90;;;9.60;99.90;;;;;;4969584;28;20049;-71
2023/03/26 11:56:48;;;;;;;1999.90;999.90;;;9.60;99.90;;;;;;4983448;28;20061;-71
2023/03/26 11:59:29;;;;;;;1999.90;999.90;;;9.60;99.90;;;;;;4982203;28;20057;-71
2023/03/26 12:02:23;;;;;;;1999.90;999.90;;;9.60;99.90;;;;;;4970573;28;20074;-71
2023/03/26 12:05:01;;;;;;;1999.90;999.90;;;9.50;99.90;;;;;;5027744;28;20307;-71
2023/03/26 12:07:32;;;;;;;1999.90;999.90;;;9.60;99.90;;;;;;5054769;28;20059;-71
2023/03/26 12:09:59;;;;;;;1999.90;999.90;;;9.70;99.90;;;;;;5059387;28;20381;-71
2023/03/26 12:12:46;;;;;;;1999.90;999.90;;;9.80;99.90;;;;;;5056438;28;20403;-71
2023/03/26 12:15:17;;;;;;;1999.90;999.90;;;9.80;99.90;;;;;;5057876;28;20041;-71
2023/03/26 12:17:45;;;;;;;1999.90;999.90;;;9.80;99.60;;;;;;5057998;28;20045;-71
2023/03/26 12:20:25;;;;;;;1999.90;999.90;;;9.70;99.50;;;;;;5059506;28;20518;-71
2023/03/26 12:22:59;;;;;;;1999.90;999.90;;;9.70;99.90;;;;;;5037116;28;20045;-71
2023/03/26 12:25:29;;;;;;;1999.90;999.90;;;9.80;99.90;;;;;;5038443;28;20083;-71
2023/03/26 12:28:14;;;;;;;1999.90;999.90;;;9.80;99.90;;;;;;5060665;28;20052;-71
2023/03/26 12:30:50;;;;;;;1999.90;999.90;;;9.90;99.90;;;;;;5059628;28;20713;-71
2023/03/26 12:33:25;;;;;;;1999.90;999.90;;;9.90;99.90;;;;;;5036340;28;20063;-71
2023/03/26 12:35:52;;;;;;;1999.90;999.90;;;10.00;99.90;;;;;;5059443;28;20041;-71
2023/03/26 12:38:34;;;;;;;1999.90;999.90;;;10.00;99.90;;;;;;5057933;28;20052;-71